sensor_id;sensor_type;location;lat;lon;timestamp;P1;durP1;ratioP1;P2;durP2;ratioP2
16075;SDS011;8142;48.242;11.644;2023-12-28T00:01:35;7.27;;;4.70;;
16075;SDS011;8142;48.242;11.644;2023-12-28T00:04:02;6.47;;;4.60;;
16075;SDS011;8142;48.242;11.644;2023-12-28T00:06:28;7.77;;;4.90;;
16075;SDS011;8142;48.242;11.644;2023-12-28T00:08:53;6.07;;;4.33;;
16075;SDS011;8142;48.242;11.644;2023-12-28T00:11:19;5.83;;;4.47;;
16075;SDS011;8142;48.242;11.644;2023-12-28T00:13:46;5.67;;;4.33;;
16075;SDS011;8142;48.242;11.644;2023-12-28T00:16:13;8.03;;;4.27;;
16075;SDS011;8142;48.242;11.644;2023-12-28T00:18:39;7.53;;;5.03;;
16075;SDS011;8142;48.242;11.644;2023-12-28T00:21:06;6.53;;;4.60;;
16075;SDS011;8142;48.242;11.644;2023-12-28T00:23:32;6.20;;;4.50;;
16075;SDS011;8142;48.242;11.644;2023-12-28T00:25:57;7.80;;;4.30;;
16075;SDS011;8142;48.242;11.644;2023-12-28T00:28:23;5.80;;;4.43;;
16075;SDS011;8142;48.242;11.644;2023-12-28T00:30:49;7.17;;;4.80;;
16075;SDS011;8142;48.242;11.644;2023-12-28T00:33:16;6.90;;;4.23;;
16075;SDS011;8142;48.242;11.644;2023-12-28T00:35:44;6.07;;;4.50;;
16075;SDS011;8142;48.242;11.644;2023-12-28T00:38:10;6.00;;;4.37;;
16075;SDS011;8142;48.242;11.644;2023-12-28T00:40:37;6.67;;;4.40;;
16075;SDS011;8142;48.242;11.644;2023-12-28T00:43:04;6.93;;;4.20;;
16075;SDS011;8142;48.242;11.644;2023-12-28T00:45:30;6.40;;;4.23;;
16075;SDS011;8142;48.242;11.644;2023-12-28T00:47:56;8.37;;;4.37;;
16075;SDS011;8142;48.242;11.644;2023-12-28T00:50:22;6.53;;;3.70;;
16075;SDS011;8142;48.242;11.644;2023-12-28T00:52:48;5.40;;;3.57;;
16075;SDS011;8142;48.242;11.644;2023-12-28T00:55:14;5.23;;;3.43;;
16075;SDS011;8142;48.242;11.644;2023-12-28T00:57:40;6.37;;;3.73;;
16075;SDS011;8142;48.242;11.644;2023-12-28T01:00:06;3.93;;;3.20;;
16075;SDS011;8142;48.242;11.644;2023-12-28T01:02:32;4.37;;;2.90;;
16075;SDS011;8142;48.242;11.644;2023-12-28T01:04:59;3.87;;;3.00;;
16075;SDS011;8142;48.242;11.644;2023-12-28T01:07:25;3.90;;;2.60;;
16075;SDS011;8142;48.242;11.644;2023-12-28T01:09:52;4.40;;;2.67;;
16075;SDS011;8142;48.242;11.644;2023-12-28T01:12:18;6.03;;;2.40;;
16075;SDS011;8142;48.242;11.644;2023-12-28T01:14:43;3.00;;;2.40;;
16075;SDS011;8142;48.242;11.644;2023-12-28T01:17:09;3.83;;;2.50;;
16075;SDS011;8142;48.242;11.644;2023-12-28T01:19:35;2.60;;;2.00;;
16075;SDS011;8142;48.242;11.644;2023-12-28T01:22:01;2.70;;;1.90;;
16075;SDS011;8142;48.242;11.644;2023-12-28T01:24:27;2.23;;;1.90;;
16075;SDS011;8142;48.242;11.644;2023-12-28T01:26:53;2.77;;;2.10;;
16075;SDS011;8142;48.242;11.644;2023-12-28T01:29:19;1.90;;;1.60;;
16075;SDS011;8142;48.242;11.644;2023-12-28T01:31:46;2.27;;;1.90;;
16075;SDS011;8142;48.242;11.644;2023-12-28T01:34:12;3.03;;;1.97;;
16075;SDS011;8142;48.242;11.644;2023-12-28T01:36:38;3.27;;;2.10;;
16075;SDS011;8142;48.242;11.644;2023-12-28T01:39:07;2.70;;;1.90;;
16075;SDS011;8142;48.242;11.644;2023-12-28T01:41:32;2.73;;;1.73;;
16075;SDS011;8142;48.242;11.644;2023-12-28T01:43:58;2.33;;;1.90;;
16075;SDS011;8142;48.242;11.644;2023-12-28T01:46:24;2.33;;;2.03;;
16075;SDS011;8142;48.242;11.644;2023-12-28T01:48:50;2.00;;;1.43;;
16075;SDS011;8142;48.242;11.644;2023-12-28T01:51:16;1.77;;;1.60;;
16075;SDS011;8142;48.242;11.644;2023-12-28T01:53:42;2.50;;;1.90;;
16075;SDS011;8142;48.242;11.644;2023-12-28T01:56:10;2.73;;;1.60;;
16075;SDS011;8142;48.242;11.644;2023-12-28T01:58:37;2.20;;;1.60;;
16075;SDS011;8142;48.242;11.644;2023-12-28T02:01:05;1.77;;;1.50;;
16075;SDS011;8142;48.242;11.644;2023-12-28T02:03:31;2.43;;;1.70;;
16075;SDS011;8142;48.242;11.644;2023-12-28T02:05:58;2.13;;;1.60;;
16075;SDS011;8142;48.242;11.644;2023-12-28T02:08:25;1.60;;;1.50;;
16075;SDS011;8142;48.242;11.644;2023-12-28T02:10:51;1.73;;;1.53;;
16075;SDS011;8142;48.242;11.644;2023-12-28T02:13:17;2.57;;;1.80;;
16075;SDS011;8142;48.242;11.644;2023-12-28T02:15:43;2.00;;;1.80;;
16075;SDS011;8142;48.242;11.644;2023-12-28T02:18:12;2.80;;;1.83;;
16075;SDS011;8142;48.242;11.644;2023-12-28T02:20:41;3.87;;;1.70;;
16075;SDS011;8142;48.242;11.644;2023-12-28T02:23:09;3.00;;;1.70;;
16075;SDS011;8142;48.242;11.644;2023-12-28T02:25:35;2.10;;;1.57;;
16075;SDS011;8142;48.242;11.644;2023-12-28T02:28:01;2.17;;;1.53;;
16075;SDS011;8142;48.242;11.644;2023-12-28T02:30:28;2.67;;;1.60;;
16075;SDS011;8142;48.242;11.644;2023-12-28T02:35:31;2.00;;;1.80;;
16075;SDS011;8142;48.242;11.644;2023-12-28T02:38:06;1.83;;;1.50;;
16075;SDS011;8142;48.242;11.644;2023-12-28T02:40:37;1.60;;;1.50;;
16075;SDS011;8142;48.242;11.644;2023-12-28T02:43:05;2.03;;;1.77;;
16075;SDS011;8142;48.242;11.644;2023-12-28T02:45:32;2.03;;;1.70;;
16075;SDS011;8142;48.242;11.644;2023-12-28T02:47:59;2.70;;;1.80;;
16075;SDS011;8142;48.242;11.644;2023-12-28T02:50:24;1.97;;;1.70;;
16075;SDS011;8142;48.242;11.644;2023-12-28T02:52:50;1.97;;;1.60;;
16075;SDS011;8142;48.242;11.644;2023-12-28T02:55:16;1.73;;;1.50;;
16075;SDS011;8142;48.242;11.644;2023-12-28T02:57:43;2.53;;;1.93;;
16075;SDS011;8142;48.242;11.644;2023-12-28T03:00:09;3.50;;;1.80;;
16075;SDS011;8142;48.242;11.644;2023-12-28T03:02:36;2.07;;;1.50;;
16075;SDS011;8142;48.242;11.644;2023-12-28T03:05:05;2.50;;;1.80;;
16075;SDS011;8142;48.242;11.644;2023-12-28T03:07:32;2.87;;;1.63;;
16075;SDS011;8142;48.242;11.644;2023-12-28T03:09:59;1.83;;;1.67;;
16075;SDS011;8142;48.242;11.644;2023-12-28T03:12:25;1.87;;;1.60;;
16075;SDS011;8142;48.242;11.644;2023-12-28T03:14:52;1.77;;;1.57;;
16075;SDS011;8142;48.242;11.644;2023-12-28T03:17:17;2.27;;;1.63;;
16075;SDS011;8142;48.242;11.644;2023-12-28T03:19:43;2.03;;;1.47;;
16075;SDS011;8142;48.242;11.644;2023-12-28T03:22:09;1.50;;;1.40;;
16075;SDS011;8142;48.242;11.644;2023-12-28T03:24:38;2.10;;;1.70;;
16075;SDS011;8142;48.242;11.644;2023-12-28T03:27:04;3.17;;;1.73;;
16075;SDS011;8142;48.242;11.644;2023-12-28T03:29:30;3.20;;;1.73;;
16075;SDS011;8142;48.242;11.644;2023-12-28T03:31:56;2.07;;;1.60;;
16075;SDS011;8142;48.242;11.644;2023-12-28T03:34:22;1.97;;;1.67;;
16075;SDS011;8142;48.242;11.644;2023-12-28T03:36:49;2.40;;;1.60;;
16075;SDS011;8142;48.242;11.644;2023-12-28T03:39:15;3.50;;;1.80;;
16075;SDS011;8142;48.242;11.644;2023-12-28T03:41:41;1.83;;;1.67;;
16075;SDS011;8142;48.242;11.644;2023-12-28T03:44:07;1.93;;;1.50;;
16075;SDS011;8142;48.242;11.644;2023-12-28T03:46:33;2.17;;;1.90;;
16075;SDS011;8142;48.242;11.644;2023-12-28T03:48:58;2.37;;;1.70;;
16075;SDS011;8142;48.242;11.644;2023-12-28T03:51:24;1.67;;;1.57;;
16075;SDS011;8142;48.242;11.644;2023-12-28T03:53:50;1.73;;;1.60;;
16075;SDS011;8142;48.242;11.644;2023-12-28T03:56:23;1.97;;;1.70;;
16075;SDS011;8142;48.242;11.644;2023-12-28T03:58:50;1.67;;;1.57;;
16075;SDS011;8142;48.242;11.644;2023-12-28T04:01:19;1.60;;;1.50;;
16075;SDS011;8142;48.242;11.644;2023-12-28T04:03:46;2.97;;;1.57;;
16075;SDS011;8142;48.242;11.644;2023-12-28T04:06:13;2.03;;;1.60;;
16075;SDS011;8142;48.242;11.644;2023-12-28T04:08:40;2.20;;;1.63;;
16075;SDS011;8142;48.242;11.644;2023-12-28T04:11:06;3.40;;;1.67;;
16075;SDS011;8142;48.242;11.644;2023-12-28T04:13:33;2.13;;;1.50;;
16075;SDS011;8142;48.242;11.644;2023-12-28T04:15:59;2.53;;;1.70;;
16075;SDS011;8142;48.242;11.644;2023-12-28T04:18:25;1.57;;;1.47;;
16075;SDS011;8142;48.242;11.644;2023-12-28T04:20:51;2.70;;;1.80;;
16075;SDS011;8142;48.242;11.644;2023-12-28T04:23:17;2.33;;;1.87;;
16075;SDS011;8142;48.242;11.644;2023-12-28T04:25:42;1.80;;;1.50;;
16075;SDS011;8142;48.242;11.644;2023-12-28T04:28:08;1.70;;;1.50;;
16075;SDS011;8142;48.242;11.644;2023-12-28T04:30:34;2.53;;;1.70;;
16075;SDS011;8142;48.242;11.644;2023-12-28T04:33:00;2.73;;;1.80;;
16075;SDS011;8142;48.242;11.644;2023-12-28T04:35:27;2.87;;;1.70;;
16075;SDS011;8142;48.242;11.644;2023-12-28T04:37:54;4.07;;;1.50;;
16075;SDS011;8142;48.242;11.644;2023-12-28T04:40:20;2.20;;;1.80;;
16075;SDS011;8142;48.242;11.644;2023-12-28T04:42:46;2.70;;;1.80;;
16075;SDS011;8142;48.242;11.644;2023-12-28T04:45:12;3.07;;;2.50;;
16075;SDS011;8142;48.242;11.644;2023-12-28T04:47:38;5.10;;;3.20;;
16075;SDS011;8142;48.242;11.644;2023-12-28T04:50:04;4.00;;;2.63;;
16075;SDS011;8142;48.242;11.644;2023-12-28T04:52:31;3.00;;;2.10;;
16075;SDS011;8142;48.242;11.644;2023-12-28T04:54:57;2.60;;;1.90;;
16075;SDS011;8142;48.242;11.644;2023-12-28T04:57:23;2.80;;;2.07;;
16075;SDS011;8142;48.242;11.644;2023-12-28T04:59:51;2.60;;;1.93;;
16075;SDS011;8142;48.242;11.644;2023-12-28T05:02:17;3.13;;;2.10;;
16075;SDS011;8142;48.242;11.644;2023-12-28T05:04:43;3.07;;;2.10;;
16075;SDS011;8142;48.242;11.644;2023-12-28T05:07:09;3.40;;;2.30;;
16075;SDS011;8142;48.242;11.644;2023-12-28T05:09:35;3.07;;;2.23;;
16075;SDS011;8142;48.242;11.644;2023-12-28T05:12:01;2.03;;;1.77;;
16075;SDS011;8142;48.242;11.644;2023-12-28T05:14:27;2.87;;;2.07;;
16075;SDS011;8142;48.242;11.644;2023-12-28T05:16:53;2.93;;;2.07;;
16075;SDS011;8142;48.242;11.644;2023-12-28T05:19:19;3.53;;;2.27;;
16075;SDS011;8142;48.242;11.644;2023-12-28T05:21:45;3.53;;;2.23;;
16075;SDS011;8142;48.242;11.644;2023-12-28T05:24:12;2.33;;;2.00;;
16075;SDS011;8142;48.242;11.644;2023-12-28T05:26:38;2.43;;;1.93;;
16075;SDS011;8142;48.242;11.644;2023-12-28T05:29:04;2.60;;;2.20;;
16075;SDS011;8142;48.242;11.644;2023-12-28T05:31:30;3.57;;;2.00;;
16075;SDS011;8142;48.242;11.644;2023-12-28T05:33:56;3.07;;;2.00;;
16075;SDS011;8142;48.242;11.644;2023-12-28T05:36:23;2.07;;;1.80;;
16075;SDS011;8142;48.242;11.644;2023-12-28T05:38:50;2.70;;;1.87;;
16075;SDS011;8142;48.242;11.644;2023-12-28T05:41:16;2.80;;;2.03;;
16075;SDS011;8142;48.242;11.644;2023-12-28T05:43:42;3.63;;;1.97;;
16075;SDS011;8142;48.242;11.644;2023-12-28T05:46:08;2.30;;;1.70;;
16075;SDS011;8142;48.242;11.644;2023-12-28T05:48:34;1.97;;;1.70;;
16075;SDS011;8142;48.242;11.644;2023-12-28T05:51:00;1.93;;;1.73;;
16075;SDS011;8142;48.242;11.644;2023-12-28T05:53:26;4.53;;;2.20;;
16075;SDS011;8142;48.242;11.644;2023-12-28T05:55:53;3.10;;;2.10;;
16075;SDS011;8142;48.242;11.644;2023-12-28T05:58:19;2.10;;;1.80;;
16075;SDS011;8142;48.242;11.644;2023-12-28T06:00:45;3.00;;;1.90;;
16075;SDS011;8142;48.242;11.644;2023-12-28T06:03:14;2.63;;;1.83;;
16075;SDS011;8142;48.242;11.644;2023-12-28T06:05:40;2.23;;;1.80;;
16075;SDS011;8142;48.242;11.644;2023-12-28T06:08:06;2.67;;;1.80;;
16075;SDS011;8142;48.242;11.644;2023-12-28T06:10:32;3.33;;;1.97;;
16075;SDS011;8142;48.242;11.644;2023-12-28T06:12:58;3.47;;;1.90;;
16075;SDS011;8142;48.242;11.644;2023-12-28T06:15:24;1.90;;;1.70;;
16075;SDS011;8142;48.242;11.644;2023-12-28T06:17:50;2.43;;;1.73;;
16075;SDS011;8142;48.242;11.644;2023-12-28T06:20:15;1.90;;;1.70;;
16075;SDS011;8142;48.242;11.644;2023-12-28T06:22:41;3.90;;;1.67;;
16075;SDS011;8142;48.242;11.644;2023-12-28T06:25:08;2.13;;;1.60;;
16075;SDS011;8142;48.242;11.644;2023-12-28T06:27:36;3.90;;;1.80;;
16075;SDS011;8142;48.242;11.644;2023-12-28T06:30:02;3.23;;;1.93;;
16075;SDS011;8142;48.242;11.644;2023-12-28T06:32:28;2.43;;;1.80;;
16075;SDS011;8142;48.242;11.644;2023-12-28T06:34:54;2.97;;;1.87;;
16075;SDS011;8142;48.242;11.644;2023-12-28T06:37:20;2.87;;;2.00;;
16075;SDS011;8142;48.242;11.644;2023-12-28T06:39:46;2.27;;;1.63;;
16075;SDS011;8142;48.242;11.644;2023-12-28T06:42:12;2.90;;;1.87;;
16075;SDS011;8142;48.242;11.644;2023-12-28T06:44:38;2.20;;;1.90;;
16075;SDS011;8142;48.242;11.644;2023-12-28T06:47:04;2.90;;;1.90;;
16075;SDS011;8142;48.242;11.644;2023-12-28T06:49:30;2.83;;;1.83;;
16075;SDS011;8142;48.242;11.644;2023-12-28T06:51:55;2.30;;;1.87;;
16075;SDS011;8142;48.242;11.644;2023-12-28T06:54:22;2.57;;;1.90;;
16075;SDS011;8142;48.242;11.644;2023-12-28T06:56:47;2.47;;;1.90;;
16075;SDS011;8142;48.242;11.644;2023-12-28T06:59:13;3.23;;;1.87;;
16075;SDS011;8142;48.242;11.644;2023-12-28T07:01:40;3.40;;;1.90;;
16075;SDS011;8142;48.242;11.644;2023-12-28T07:04:07;2.33;;;1.90;;
16075;SDS011;8142;48.242;11.644;2023-12-28T07:06:33;1.70;;;1.60;;
16075;SDS011;8142;48.242;11.644;2023-12-28T07:08:59;2.77;;;1.63;;
16075;SDS011;8142;48.242;11.644;2023-12-28T07:11:25;3.40;;;2.00;;
16075;SDS011;8142;48.242;11.644;2023-12-28T07:13:52;4.60;;;2.13;;
16075;SDS011;8142;48.242;11.644;2023-12-28T07:16:18;2.80;;;2.07;;
16075;SDS011;8142;48.242;11.644;2023-12-28T07:18:44;2.60;;;1.90;;
16075;SDS011;8142;48.242;11.644;2023-12-28T07:21:10;3.80;;;2.00;;
16075;SDS011;8142;48.242;11.644;2023-12-28T07:23:36;3.17;;;1.90;;
16075;SDS011;8142;48.242;11.644;2023-12-28T07:26:03;3.00;;;1.80;;
16075;SDS011;8142;48.242;11.644;2023-12-28T07:28:29;2.23;;;1.60;;
16075;SDS011;8142;48.242;11.644;2023-12-28T07:30:56;2.23;;;1.60;;
16075;SDS011;8142;48.242;11.644;2023-12-28T07:33:22;3.30;;;1.80;;
16075;SDS011;8142;48.242;11.644;2023-12-28T07:35:47;2.60;;;1.80;;
16075;SDS011;8142;48.242;11.644;2023-12-28T07:38:13;3.10;;;1.77;;
16075;SDS011;8142;48.242;11.644;2023-12-28T07:40:40;3.10;;;1.90;;
16075;SDS011;8142;48.242;11.644;2023-12-28T07:43:06;3.10;;;1.80;;
16075;SDS011;8142;48.242;11.644;2023-12-28T07:45:32;6.67;;;2.07;;
16075;SDS011;8142;48.242;11.644;2023-12-28T07:48:01;2.80;;;1.90;;
16075;SDS011;8142;48.242;11.644;2023-12-28T07:50:27;3.17;;;2.00;;
16075;SDS011;8142;48.242;11.644;2023-12-28T07:52:53;3.47;;;1.90;;
16075;SDS011;8142;48.242;11.644;2023-12-28T07:55:19;3.67;;;2.00;;
16075;SDS011;8142;48.242;11.644;2023-12-28T07:57:45;3.70;;;2.27;;
16075;SDS011;8142;48.242;11.644;2023-12-28T08:00:11;4.30;;;2.00;;
16075;SDS011;8142;48.242;11.644;2023-12-28T08:02:37;2.63;;;1.70;;
16075;SDS011;8142;48.242;11.644;2023-12-28T08:05:03;2.27;;;1.80;;
16075;SDS011;8142;48.242;11.644;2023-12-28T08:07:30;2.30;;;1.60;;
16075;SDS011;8142;48.242;11.644;2023-12-28T08:09:56;2.03;;;1.60;;
16075;SDS011;8142;48.242;11.644;2023-12-28T08:12:22;2.10;;;1.50;;
16075;SDS011;8142;48.242;11.644;2023-12-28T08:14:50;3.20;;;1.70;;
16075;SDS011;8142;48.242;11.644;2023-12-28T08:17:16;2.33;;;1.60;;
16075;SDS011;8142;48.242;11.644;2023-12-28T08:19:41;2.00;;;1.60;;
16075;SDS011;8142;48.242;11.644;2023-12-28T08:22:07;1.80;;;1.50;;
16075;SDS011;8142;48.242;11.644;2023-12-28T08:24:33;2.53;;;1.40;;
16075;SDS011;8142;48.242;11.644;2023-12-28T08:27:01;1.70;;;1.57;;
16075;SDS011;8142;48.242;11.644;2023-12-28T08:29:28;2.30;;;1.57;;
16075;SDS011;8142;48.242;11.644;2023-12-28T08:31:55;2.80;;;1.70;;
16075;SDS011;8142;48.242;11.644;2023-12-28T08:34:21;3.07;;;1.80;;
16075;SDS011;8142;48.242;11.644;2023-12-28T08:36:47;2.10;;;1.60;;
16075;SDS011;8142;48.242;11.644;2023-12-28T08:39:13;2.10;;;1.70;;
16075;SDS011;8142;48.242;11.644;2023-12-28T08:41:39;1.73;;;1.40;;
16075;SDS011;8142;48.242;11.644;2023-12-28T08:44:05;2.13;;;1.50;;
16075;SDS011;8142;48.242;11.644;2023-12-28T08:46:31;2.57;;;1.53;;
16075;SDS011;8142;48.242;11.644;2023-12-28T08:48:57;2.60;;;1.33;;
16075;SDS011;8142;48.242;11.644;2023-12-28T08:51:23;2.10;;;1.50;;
16075;SDS011;8142;48.242;11.644;2023-12-28T08:53:49;2.07;;;1.50;;
16075;SDS011;8142;48.242;11.644;2023-12-28T08:56:21;3.93;;;1.60;;
16075;SDS011;8142;48.242;11.644;2023-12-28T08:58:48;1.40;;;1.30;;
16075;SDS011;8142;48.242;11.644;2023-12-28T09:01:20;2.97;;;1.80;;
16075;SDS011;8142;48.242;11.644;2023-12-28T09:03:50;2.93;;;1.53;;
16075;SDS011;8142;48.242;11.644;2023-12-28T09:06:18;2.10;;;1.60;;
16075;SDS011;8142;48.242;11.644;2023-12-28T09:08:45;3.33;;;1.80;;
16075;SDS011;8142;48.242;11.644;2023-12-28T09:11:13;1.80;;;1.50;;
16075;SDS011;8142;48.242;11.644;2023-12-28T09:13:40;2.53;;;1.80;;
16075;SDS011;8142;48.242;11.644;2023-12-28T09:16:07;2.43;;;1.57;;
16075;SDS011;8142;48.242;11.644;2023-12-28T09:18:35;2.63;;;1.60;;
16075;SDS011;8142;48.242;11.644;2023-12-28T09:21:04;1.50;;;1.40;;
16075;SDS011;8142;48.242;11.644;2023-12-28T09:23:31;2.07;;;1.60;;
16075;SDS011;8142;48.242;11.644;2023-12-28T09:25:58;2.33;;;1.63;;
16075;SDS011;8142;48.242;11.644;2023-12-28T09:28:25;1.87;;;1.60;;
16075;SDS011;8142;48.242;11.644;2023-12-28T09:30:51;2.30;;;1.50;;
16075;SDS011;8142;48.242;11.644;2023-12-28T09:33:17;1.50;;;1.40;;
16075;SDS011;8142;48.242;11.644;2023-12-28T09:35:43;1.50;;;1.40;;
16075;SDS011;8142;48.242;11.644;2023-12-28T09:38:09;1.83;;;1.30;;
16075;SDS011;8142;48.242;11.644;2023-12-28T09:40:35;1.80;;;1.33;;
16075;SDS011;8142;48.242;11.644;2023-12-28T09:43:12;1.43;;;1.30;;
16075;SDS011;8142;48.242;11.644;2023-12-28T09:45:40;2.27;;;1.67;;
16075;SDS011;8142;48.242;11.644;2023-12-28T09:48:06;1.53;;;1.30;;
16075;SDS011;8142;48.242;11.644;2023-12-28T09:50:32;1.53;;;1.30;;
16075;SDS011;8142;48.242;11.644;2023-12-28T09:52:58;2.87;;;1.43;;
16075;SDS011;8142;48.242;11.644;2023-12-28T09:55:24;1.80;;;1.50;;
16075;SDS011;8142;48.242;11.644;2023-12-28T09:57:51;1.90;;;1.40;;
16075;SDS011;8142;48.242;11.644;2023-12-28T10:00:17;1.57;;;1.40;;
16075;SDS011;8142;48.242;11.644;2023-12-28T10:02:43;1.40;;;1.20;;
16075;SDS011;8142;48.242;11.644;2023-12-28T10:05:13;2.27;;;1.30;;
16075;SDS011;8142;48.242;11.644;2023-12-28T10:07:40;1.67;;;1.37;;
16075;SDS011;8142;48.242;11.644;2023-12-28T10:10:10;2.00;;;1.40;;
16075;SDS011;8142;48.242;11.644;2023-12-28T10:12:37;2.03;;;1.40;;
16075;SDS011;8142;48.242;11.644;2023-12-28T10:15:04;1.33;;;1.23;;
16075;SDS011;8142;48.242;11.644;2023-12-28T10:17:34;1.80;;;1.37;;
16075;SDS011;8142;48.242;11.644;2023-12-28T10:20:03;1.33;;;1.23;;
16075;SDS011;8142;48.242;11.644;2023-12-28T10:22:32;1.63;;;1.30;;
16075;SDS011;8142;48.242;11.644;2023-12-28T10:24:59;2.50;;;1.50;;
16075;SDS011;8142;48.242;11.644;2023-12-28T10:27:26;1.40;;;1.20;;
16075;SDS011;8142;48.242;11.644;2023-12-28T10:29:55;1.60;;;1.30;;
16075;SDS011;8142;48.242;11.644;2023-12-28T10:32:24;1.30;;;1.13;;
16075;SDS011;8142;48.242;11.644;2023-12-28T10:34:53;1.57;;;1.37;;
16075;SDS011;8142;48.242;11.644;2023-12-28T10:37:21;1.30;;;1.20;;
16075;SDS011;8142;48.242;11.644;2023-12-28T10:39:48;0.97;;;0.97;;
16075;SDS011;8142;48.242;11.644;2023-12-28T10:42:17;1.40;;;1.20;;
16075;SDS011;8142;48.242;11.644;2023-12-28T10:45:04;1.27;;;1.17;;
16075;SDS011;8142;48.242;11.644;2023-12-28T10:47:32;2.03;;;1.30;;
16075;SDS011;8142;48.242;11.644;2023-12-28T10:50:04;2.00;;;1.30;;
16075;SDS011;8142;48.242;11.644;2023-12-28T10:52:32;1.20;;;1.00;;
16075;SDS011;8142;48.242;11.644;2023-12-28T10:55:14;1.50;;;1.30;;
16075;SDS011;8142;48.242;11.644;2023-12-28T10:58:03;1.83;;;1.27;;
16075;SDS011;8142;48.242;11.644;2023-12-28T11:00:41;1.90;;;1.27;;
16075;SDS011;8142;48.242;11.644;2023-12-28T11:03:14;1.40;;;1.30;;
16075;SDS011;8142;48.242;11.644;2023-12-28T11:05:48;2.13;;;1.33;;
16075;SDS011;8142;48.242;11.644;2023-12-28T11:08:14;1.50;;;1.40;;
16075;SDS011;8142;48.242;11.644;2023-12-28T11:10:41;1.30;;;1.20;;
16075;SDS011;8142;48.242;11.644;2023-12-28T11:13:08;1.97;;;1.50;;
16075;SDS011;8142;48.242;11.644;2023-12-28T11:15:35;1.40;;;1.30;;
16075;SDS011;8142;48.242;11.644;2023-12-28T11:18:03;1.50;;;1.33;;
16075;SDS011;8142;48.242;11.644;2023-12-28T11:20:29;1.83;;;1.23;;
16075;SDS011;8142;48.242;11.644;2023-12-28T11:22:56;1.97;;;1.30;;
16075;SDS011;8142;48.242;11.644;2023-12-28T11:25:30;1.50;;;1.10;;
16075;SDS011;8142;48.242;11.644;2023-12-28T11:27:57;1.40;;;1.30;;
16075;SDS011;8142;48.242;11.644;2023-12-28T11:30:25;1.43;;;1.30;;
16075;SDS011;8142;48.242;11.644;2023-12-28T11:32:55;5.20;;;2.20;;
16075;SDS011;8142;48.242;11.644;2023-12-28T11:35:22;4.07;;;3.00;;
16075;SDS011;8142;48.242;11.644;2023-12-28T11:37:48;1.97;;;1.40;;
16075;SDS011;8142;48.242;11.644;2023-12-28T11:40:19;1.80;;;1.13;;
16075;SDS011;8142;48.242;11.644;2023-12-28T11:42:50;1.20;;;1.10;;
16075;SDS011;8142;48.242;11.644;2023-12-28T11:45:18;2.87;;;1.20;;
16075;SDS011;8142;48.242;11.644;2023-12-28T11:47:46;1.60;;;1.30;;
16075;SDS011;8142;48.242;11.644;2023-12-28T11:50:24;2.03;;;1.40;;
16075;SDS011;8142;48.242;11.644;2023-12-28T11:52:50;1.90;;;1.30;;
16075;SDS011;8142;48.242;11.644;2023-12-28T11:55:22;2.27;;;1.40;;
16075;SDS011;8142;48.242;11.644;2023-12-28T11:57:49;2.43;;;2.17;;
16075;SDS011;8142;48.242;11.644;2023-12-28T12:00:15;2.50;;;1.83;;
16075;SDS011;8142;48.242;11.644;2023-12-28T12:02:44;1.80;;;1.60;;
16075;SDS011;8142;48.242;11.644;2023-12-28T12:05:14;1.50;;;1.40;;
16075;SDS011;8142;48.242;11.644;2023-12-28T12:07:40;1.57;;;1.43;;
16075;SDS011;8142;48.242;11.644;2023-12-28T12:10:07;1.73;;;1.50;;
16075;SDS011;8142;48.242;11.644;2023-12-28T12:12:44;1.83;;;1.40;;
16075;SDS011;8142;48.242;11.644;2023-12-28T12:15:10;1.60;;;1.30;;
16075;SDS011;8142;48.242;11.644;2023-12-28T12:17:36;3.13;;;1.70;;
16075;SDS011;8142;48.242;11.644;2023-12-28T12:20:03;3.00;;;1.30;;
16075;SDS011;8142;48.242;11.644;2023-12-28T12:22:31;1.87;;;1.40;;
16075;SDS011;8142;48.242;11.644;2023-12-28T12:24:57;1.53;;;1.27;;
16075;SDS011;8142;48.242;11.644;2023-12-28T12:27:29;3.43;;;1.53;;
16075;SDS011;8142;48.242;11.644;2023-12-28T12:29:55;1.53;;;1.20;;
16075;SDS011;8142;48.242;11.644;2023-12-28T12:32:23;3.43;;;1.40;;
16075;SDS011;8142;48.242;11.644;2023-12-28T12:34:52;1.40;;;1.30;;
16075;SDS011;8142;48.242;11.644;2023-12-28T12:37:18;1.93;;;1.50;;
16075;SDS011;8142;48.242;11.644;2023-12-28T12:39:44;1.40;;;1.13;;
16075;SDS011;8142;48.242;11.644;2023-12-28T12:42:14;2.80;;;1.40;;
16075;SDS011;8142;48.242;11.644;2023-12-28T12:44:40;1.77;;;1.30;;
16075;SDS011;8142;48.242;11.644;2023-12-28T12:47:06;1.63;;;1.40;;
16075;SDS011;8142;48.242;11.644;2023-12-28T12:49:32;2.50;;;1.30;;
16075;SDS011;8142;48.242;11.644;2023-12-28T12:51:58;2.53;;;1.50;;
16075;SDS011;8142;48.242;11.644;2023-12-28T12:54:26;1.60;;;1.30;;
16075;SDS011;8142;48.242;11.644;2023-12-28T12:56:53;1.40;;;1.30;;
16075;SDS011;8142;48.242;11.644;2023-12-28T12:59:21;1.97;;;1.47;;
16075;SDS011;8142;48.242;11.644;2023-12-28T13:01:47;2.87;;;1.20;;
16075;SDS011;8142;48.242;11.644;2023-12-28T13:04:13;1.57;;;1.30;;
16075;SDS011;8142;48.242;11.644;2023-12-28T13:06:41;2.33;;;1.77;;
16075;SDS011;8142;48.242;11.644;2023-12-28T13:09:08;2.07;;;1.40;;
16075;SDS011;8142;48.242;11.644;2023-12-28T13:11:36;1.73;;;1.20;;
16075;SDS011;8142;48.242;11.644;2023-12-28T13:14:02;1.57;;;1.20;;
16075;SDS011;8142;48.242;11.644;2023-12-28T13:16:29;2.20;;;1.53;;
16075;SDS011;8142;48.242;11.644;2023-12-28T13:18:57;2.43;;;1.70;;
16075;SDS011;8142;48.242;11.644;2023-12-28T13:21:25;1.67;;;1.40;;
16075;SDS011;8142;48.242;11.644;2023-12-28T13:23:52;1.67;;;1.30;;
16075;SDS011;8142;48.242;11.644;2023-12-28T13:26:19;1.30;;;1.20;;
16075;SDS011;8142;48.242;11.644;2023-12-28T13:28:45;2.60;;;1.60;;
16075;SDS011;8142;48.242;11.644;2023-12-28T13:31:11;2.03;;;1.50;;
16075;SDS011;8142;48.242;11.644;2023-12-28T13:33:37;2.33;;;1.40;;
16075;SDS011;8142;48.242;11.644;2023-12-28T13:36:03;1.87;;;1.43;;
16075;SDS011;8142;48.242;11.644;2023-12-28T13:38:29;1.50;;;1.40;;
16075;SDS011;8142;48.242;11.644;2023-12-28T13:40:56;3.23;;;1.50;;
16075;SDS011;8142;48.242;11.644;2023-12-28T13:43:24;2.70;;;1.27;;
16075;SDS011;8142;48.242;11.644;2023-12-28T13:45:52;1.70;;;1.50;;
16075;SDS011;8142;48.242;11.644;2023-12-28T13:48:18;2.33;;;1.80;;
16075;SDS011;8142;48.242;11.644;2023-12-28T13:50:44;2.63;;;1.80;;
16075;SDS011;8142;48.242;11.644;2023-12-28T13:53:10;2.57;;;1.73;;
16075;SDS011;8142;48.242;11.644;2023-12-28T13:55:36;2.90;;;1.60;;
16075;SDS011;8142;48.242;11.644;2023-12-28T13:58:02;2.30;;;1.53;;
16075;SDS011;8142;48.242;11.644;2023-12-28T14:00:29;1.87;;;1.67;;
16075;SDS011;8142;48.242;11.644;2023-12-28T14:02:55;2.27;;;1.60;;
16075;SDS011;8142;48.242;11.644;2023-12-28T14:05:22;2.70;;;1.87;;
16075;SDS011;8142;48.242;11.644;2023-12-28T14:07:51;2.87;;;2.50;;
16075;SDS011;8142;48.242;11.644;2023-12-28T14:10:19;5.57;;;2.53;;
16075;SDS011;8142;48.242;11.644;2023-12-28T14:12:45;4.97;;;2.97;;
16075;SDS011;8142;48.242;11.644;2023-12-28T14:15:11;7.80;;;5.60;;
16075;SDS011;8142;48.242;11.644;2023-12-28T14:17:40;7.27;;;4.07;;
16075;SDS011;8142;48.242;11.644;2023-12-28T14:20:06;4.27;;;2.20;;
16075;SDS011;8142;48.242;11.644;2023-12-28T14:22:34;3.97;;;2.37;;
16075;SDS011;8142;48.242;11.644;2023-12-28T14:25:00;2.10;;;1.90;;
16075;SDS011;8142;48.242;11.644;2023-12-28T14:27:28;1.77;;;1.63;;
16075;SDS011;8142;48.242;11.644;2023-12-28T14:29:56;3.40;;;1.80;;
16075;SDS011;8142;48.242;11.644;2023-12-28T14:32:23;2.87;;;2.20;;
16075;SDS011;8142;48.242;11.644;2023-12-28T14:34:50;5.37;;;3.83;;
16075;SDS011;8142;48.242;11.644;2023-12-28T14:37:17;2.93;;;2.43;;
16075;SDS011;8142;48.242;11.644;2023-12-28T14:39:43;2.17;;;1.87;;
16075;SDS011;8142;48.242;11.644;2023-12-28T14:42:09;2.30;;;1.60;;
16075;SDS011;8142;48.242;11.644;2023-12-28T14:44:36;2.30;;;1.70;;
16075;SDS011;8142;48.242;11.644;2023-12-28T14:47:02;2.00;;;1.80;;
16075;SDS011;8142;48.242;11.644;2023-12-28T14:49:29;1.93;;;1.73;;